Time;durP1;ratioP1;P1;durP2;ratioP2;P2;SDS_P1;SDS_P2;PMS_P1;PMS_P2;Temp;Humidity;BMP_temperature;BMP_pressure;BME280_temperature;BME280_humidity;BME280_pressure;Samples;Min_cycle;Max_cycle;Signal;HPM_P1;HPM_P2
2022/04/08 00:01:34;;;;;;;27.50;5.40;;;13.20;99.90;;;;;;5038539;28;20494;-61
2022/04/08 00:04:00;;;;;;;24.52;5.38;;;13.10;99.90;;;;;;5037127;28;20498;-62
2022/04/08 00:06:26;;;;;;;28.40;4.78;;;13.10;99.90;;;;;;5036759;28;20474;-62
2022/04/08 00:08:51;;;;;;;31.65;5.00;;;13.10;99.90;;;;;;5036470;28;20111;-62
2022/04/08 00:11:17;;;;;;;28.40;5.55;;;13.00;99.90;;;;;;5033245;28;20044;-61
2022/04/08 00:13:44;;;;;;;24.38;5.00;;;13.00;99.90;;;;;;5038204;28;20067;-61
2022/04/08 00:16:09;;;;;;;26.17;4.72;;;13.00;99.90;;;;;;5035441;28;20116;-61
2022/04/08 00:18:37;;;;;;;23.73;5.10;;;13.00;99.90;;;;;;5036704;28;20502;-62
2022/04/08 00:21:03;;;;;;;25.20;4.95;;;13.00;99.90;;;;;;5036707;28;20028;-61
2022/04/08 00:23:29;;;;;;;21.42;4.57;;;13.00;99.90;;;;;;5032722;28;20026;-61
2022/04/08 00:25:55;;;;;;;21.30;4.68;;;13.00;99.90;;;;;;5038452;28;20025;-61
2022/04/08 00:28:21;;;;;;;20.42;4.60;;;13.00;99.90;;;;;;5036886;28;20402;-61
2022/04/08 00:30:46;;;;;;;23.30;5.10;;;13.00;99.90;;;;;;5036357;28;20029;-62
2022/04/08 00:33:12;;;;;;;24.13;5.22;;;12.90;99.90;;;;;;5036459;28;20068;-62
2022/04/08 00:35:38;;;;;;;19.75;4.70;;;12.90;99.90;;;;;;5033787;28;20041;-62
2022/04/08 00:38:03;;;;;;;25.60;4.85;;;12.80;99.90;;;;;;5035081;28;20033;-62
2022/04/08 00:40:29;;;;;;;22.75;4.63;;;12.90;99.90;;;;;;5036051;28;20406;-62
2022/04/08 00:42:55;;;;;;;26.10;4.82;;;12.90;99.90;;;;;;5036462;28;20033;-61
2022/04/08 00:45:21;;;;;;;26.58;5.65;;;12.90;99.90;;;;;;5036720;28;20113;-61
2022/04/08 00:47:48;;;;;;;21.15;4.68;;;12.90;99.90;;;;;;5034582;28;20025;-62
2022/04/08 00:50:14;;;;;;;19.73;4.80;;;12.90;99.90;;;;;;5033645;28;20383;-61
2022/04/08 00:52:42;;;;;;;22.70;4.80;;;12.80;99.90;;;;;;5036733;28;20025;-61
2022/04/08 00:55:10;;;;;;;22.02;5.07;;;12.90;99.90;;;;;;5034608;28;20025;-61
2022/04/08 00:57:36;;;;;;;21.27;4.78;;;12.80;99.90;;;;;;5036062;28;20456;-61
2022/04/08 01:00:10;;;;;;;20.63;4.78;;;12.80;99.90;;;;;;5036240;28;20036;-62
2022/04/08 01:02:36;;;;;;;21.35;4.78;;;12.70;99.90;;;;;;5033312;28;20517;-61
2022/04/08 01:05:03;;;;;;;24.52;4.65;;;12.80;99.90;;;;;;5035993;28;20030;-61
2022/04/08 01:07:30;;;;;;;20.83;4.35;;;12.80;99.90;;;;;;5036908;28;20034;-61
2022/04/08 01:09:56;;;;;;;19.38;4.40;;;12.80;99.90;;;;;;5035967;28;20442;-61
2022/04/08 01:12:21;;;;;;;21.58;4.90;;;12.70;99.90;;;;;;5034955;28;20030;-61
2022/04/08 01:14:47;;;;;;;23.52;5.20;;;12.60;99.90;;;;;;5034207;28;20033;-62
2022/04/08 01:17:13;;;;;;;21.08;5.22;;;12.60;99.90;;;;;;5032959;28;20121;-61
2022/04/08 01:19:39;;;;;;;27.17;5.68;;;12.60;99.90;;;;;;5037391;28;20037;-61
2022/04/08 01:22:05;;;;;;;22.27;4.57;;;12.60;99.90;;;;;;5036033;28;20494;-62
2022/04/08 01:24:36;;;;;;;21.20;4.85;;;12.60;99.90;;;;;;5035580;28;20090;-61
2022/04/08 01:27:02;;;;;;;20.00;4.93;;;12.60;99.90;;;;;;5035725;28;20375;-61
2022/04/08 01:29:28;;;;;;;22.55;5.30;;;12.60;99.90;;;;;;5029906;28;20029;-61
2022/04/08 01:31:54;;;;;;;21.38;4.65;;;12.60;99.90;;;;;;5037198;28;20474;-61
2022/04/08 01:34:20;;;;;;;20.50;5.00;;;12.60;99.90;;;;;;5033985;28;20029;-61
2022/04/08 01:36:45;;;;;;;22.20;5.18;;;12.60;99.90;;;;;;5035358;28;20049;-61
2022/04/08 01:39:11;;;;;;;27.17;4.70;;;12.50;99.90;;;;;;5035285;28;20033;-61
2022/04/08 01:41:37;;;;;;;26.15;5.97;;;12.50;99.90;;;;;;5032286;28;20022;-61
2022/04/08 01:44:03;;;;;;;28.45;5.10;;;12.50;99.90;;;;;;5035123;28;20033;-61
2022/04/08 01:46:29;;;;;;;29.65;5.25;;;12.50;99.90;;;;;;5036067;28;20026;-61
2022/04/08 01:48:55;;;;;;;26.23;5.03;;;12.50;99.90;;;;;;5033352;28;20033;-61
2022/04/08 01:51:24;;;;;;;21.50;5.20;;;12.50;99.90;;;;;;5035459;28;20025;-61
2022/04/08 01:53:50;;;;;;;28.45;5.22;;;12.50;99.90;;;;;;5033867;28;20516;-61
2022/04/08 01:56:16;;;;;;;23.02;5.13;;;12.50;99.90;;;;;;5031849;28;20029;-61
2022/04/08 01:58:42;;;;;;;26.73;4.90;;;12.40;99.90;;;;;;5036870;28;20037;-61
2022/04/08 02:01:07;;;;;;;23.92;5.30;;;12.50;99.90;;;;;;5035008;28;20398;-61
2022/04/08 02:03:33;;;;;;;25.38;5.63;;;12.40;99.90;;;;;;5034730;28;20076;-61
2022/04/08 02:05:59;;;;;;;26.20;5.63;;;12.40;99.90;;;;;;5035432;28;20030;-61
2022/04/08 02:08:25;;;;;;;30.85;5.65;;;12.50;99.90;;;;;;5029594;28;20101;-61
2022/04/08 02:10:53;;;;;;;21.77;4.70;;;12.40;99.90;;;;;;5036598;28;20121;-61
2022/04/08 02:13:19;;;;;;;21.48;5.15;;;12.50;99.90;;;;;;5033651;28;20021;-61
2022/04/08 02:15:46;;;;;;;24.77;5.03;;;12.50;99.90;;;;;;5034917;28;20060;-61
2022/04/08 02:18:12;;;;;;;22.98;4.88;;;12.50;99.90;;;;;;5034250;28;20401;-62
2022/04/08 02:20:38;;;;;;;25.00;5.07;;;12.50;99.90;;;;;;5031749;28;20079;-61
2022/04/08 02:23:05;;;;;;;21.70;4.95;;;12.40;99.90;;;;;;5034780;28;20025;-61
2022/04/08 02:25:31;;;;;;;20.30;5.38;;;12.40;99.90;;;;;;5035581;28;20486;-61
2022/04/08 02:27:57;;;;;;;21.27;4.85;;;12.30;99.90;;;;;;5034360;28;20025;-61
2022/04/08 02:30:23;;;;;;;26.00;4.88;;;12.40;99.90;;;;;;5034439;28;20091;-61
2022/04/08 02:32:48;;;;;;;21.98;4.70;;;12.30;99.90;;;;;;5032623;28;20041;-61
2022/04/08 02:35:14;;;;;;;25.92;5.47;;;12.40;99.90;;;;;;5031310;28;20017;-61
2022/04/08 02:37:40;;;;;;;18.90;4.65;;;12.40;99.90;;;;;;5035365;28;20060;-61
2022/04/08 02:40:07;;;;;;;22.17;4.03;;;12.40;99.90;;;;;;5034320;28;20131;-61
2022/04/08 02:42:32;;;;;;;20.45;4.57;;;12.40;99.90;;;;;;5034203;28;20525;-61
2022/04/08 02:44:58;;;;;;;26.85;5.15;;;12.40;99.90;;;;;;5034608;28;20013;-61
2022/04/08 02:47:24;;;;;;;30.15;5.68;;;12.40;99.90;;;;;;5028955;28;20422;-61
2022/04/08 02:49:50;;;;;;;23.85;5.32;;;12.40;99.90;;;;;;5035828;28;20029;-61
2022/04/08 02:52:16;;;;;;;22.73;5.00;;;12.30;99.90;;;;;;5033089;28;20127;-61
2022/04/08 02:54:42;;;;;;;22.65;5.32;;;12.30;99.90;;;;;;5032941;28;20123;-61
2022/04/08 02:57:07;;;;;;;26.58;4.68;;;12.40;99.90;;;;;;5033973;28;20021;-61
2022/04/08 02:59:33;;;;;;;23.50;5.40;;;12.30;99.90;;;;;;5030450;28;20029;-62
2022/04/08 03:01:59;;;;;;;19.88;4.85;;;12.40;99.90;;;;;;5034076;28;20152;-61
2022/04/08 03:04:25;;;;;;;27.20;5.53;;;12.30;99.90;;;;;;5033160;28;20034;-61
2022/04/08 03:06:52;;;;;;;28.15;5.53;;;12.30;99.90;;;;;;5033861;28;20067;-61
2022/04/08 03:09:18;;;;;;;29.65;5.60;;;12.30;99.90;;;;;;5033987;28;20486;-60
2022/04/08 03:11:44;;;;;;;22.17;5.50;;;12.30;99.90;;;;;;5031851;28;20036;-61
2022/04/08 03:14:09;;;;;;;26.88;5.40;;;12.20;99.90;;;;;;5032111;28;20025;-61
2022/04/08 03:16:35;;;;;;;25.30;4.90;;;12.20;99.90;;;;;;5035163;28;20029;-61
2022/04/08 03:19:01;;;;;;;22.73;5.10;;;12.20;99.90;;;;;;5034002;28;20096;-61
2022/04/08 03:21:30;;;;;;;26.35;4.72;;;12.20;99.90;;;;;;5033089;28;20021;-61
2022/04/08 03:23:57;;;;;;;27.20;5.90;;;12.20;99.90;;;;;;5033515;28;20413;-61
2022/04/08 03:26:23;;;;;;;22.42;4.80;;;12.20;99.90;;;;;;5029389;28;20018;-61
2022/04/08 03:28:49;;;;;;;22.70;5.00;;;12.20;99.90;;;;;;5035760;28;20096;-61
2022/04/08 03:31:14;;;;;;;24.55;5.70;;;12.20;99.90;;;;;;5032013;28;20028;-61
2022/04/08 03:33:40;;;;;;;23.63;4.82;;;12.20;99.90;;;;;;5034148;28;20029;-60
2022/04/08 03:36:06;;;;;;;22.02;4.68;;;12.20;99.90;;;;;;5033815;28;20052;-61
2022/04/08 03:38:32;;;;;;;26.48;5.18;;;12.20;99.90;;;;;;5029981;28;20064;-61
2022/04/08 03:40:57;;;;;;;25.42;5.05;;;12.20;99.90;;;;;;5035480;28;20034;-61
2022/04/08 03:43:23;;;;;;;21.88;4.50;;;12.30;99.90;;;;;;5034132;28;20104;-61
2022/04/08 03:45:49;;;;;;;24.38;4.82;;;12.20;99.90;;;;;;5033810;28;20379;-64
2022/04/08 03:48:15;;;;;;;26.35;4.85;;;12.20;99.90;;;;;;5033742;28;20382;-61
2022/04/08 03:50:40;;;;;;;19.60;4.97;;;12.20;99.90;;;;;;5031202;28;20029;-61
2022/04/08 03:53:09;;;;;;;19.67;4.93;;;12.10;99.90;;;;;;5032854;28;20022;-61
2022/04/08 03:55:35;;;;;;;21.30;4.47;;;12.10;99.90;;;;;;5035217;28;20530;-61
2022/04/08 03:58:01;;;;;;;23.73;4.80;;;12.20;99.90;;;;;;5033880;28;20179;-61
2022/04/08 04:00:27;;;;;;;26.35;5.55;;;12.20;99.90;;;;;;5033251;28;20065;-61
2022/04/08 04:02:52;;;;;;;22.30;4.63;;;12.20;99.90;;;;;;5032720;28;20104;-61
2022/04/08 04:05:18;;;;;;;22.98;5.38;;;12.20;99.90;;;;;;5030039;28;20496;-61
2022/04/08 04:07:44;;;;;;;16.02;4.38;;;12.20;99.90;;;;;;5034411;28;20022;-61
2022/04/08 04:10:11;;;;;;;20.52;4.60;;;12.20;99.90;;;;;;5032364;28;20041;-61
2022/04/08 04:12:38;;;;;;;20.40;5.10;;;12.20;99.90;;;;;;5033632;28;20510;-61
2022/04/08 04:15:05;;;;;;;21.45;5.05;;;12.20;99.90;;;;;;5036820;28;20555;-59
2022/04/08 04:17:31;;;;;;;23.92;4.90;;;12.20;99.90;;;;;;5033147;28;20128;-60
2022/04/08 04:19:56;;;;;;;20.65;5.10;;;12.20;99.90;;;;;;5038210;28;20105;-61
2022/04/08 04:22:22;;;;;;;19.90;4.80;;;12.20;99.90;;;;;;5037239;28;20104;-61
2022/04/08 04:24:48;;;;;;;24.63;4.78;;;12.20;99.90;;;;;;5035804;28;20497;-60
2022/04/08 04:27:14;;;;;;;22.83;4.97;;;12.20;99.90;;;;;;5036367;28;20032;-62
2022/04/08 04:29:39;;;;;;;15.57;4.38;;;12.20;99.90;;;;;;5034264;28;20029;-61
2022/04/08 04:32:06;;;;;;;19.02;4.65;;;12.20;99.90;;;;;;5035553;28;20053;-61
2022/04/08 04:34:33;;;;;;;18.15;4.35;;;12.20;99.90;;;;;;5037510;28;20029;-61
2022/04/08 04:36:59;;;;;;;18.50;4.78;;;12.20;99.90;;;;;;5035882;28;20474;-61
2022/04/08 04:39:25;;;;;;;17.35;4.70;;;12.20;99.90;;;;;;5036669;28;20068;-61
2022/04/08 04:41:50;;;;;;;19.95;4.63;;;12.20;99.90;;;;;;5034776;28;20024;-61
2022/04/08 04:44:16;;;;;;;17.75;4.63;;;12.20;99.90;;;;;;5033186;28;20405;-61
2022/04/08 04:46:43;;;;;;;17.80;5.22;;;12.30;99.90;;;;;;5036760;28;20033;-61
2022/04/08 04:49:10;;;;;;;18.80;4.57;;;12.20;99.90;;;;;;5035173;28;20082;-60
2022/04/08 04:51:36;;;;;;;21.33;4.93;;;12.30;99.90;;;;;;5036323;28;20182;-60
2022/04/08 04:54:01;;;;;;;16.10;4.65;;;12.30;99.90;;;;;;5036173;28;20112;-61
2022/04/08 04:56:27;;;;;;;17.95;4.93;;;12.30;99.90;;;;;;5031756;28;20110;-60
2022/04/08 04:58:53;;;;;;;20.48;5.18;;;12.30;99.90;;;;;;5038367;28;20049;-60
2022/04/08 05:01:19;;;;;;;19.98;5.13;;;12.30;99.90;;;;;;5034741;28;20036;-60
2022/04/08 05:03:44;;;;;;;14.23;4.32;;;12.40;99.90;;;;;;5036226;28;20087;-60
2022/04/08 05:06:10;;;;;;;19.48;4.95;;;12.40;99.90;;;;;;5035958;28;20017;-61
2022/04/08 05:08:36;;;;;;;20.13;5.10;;;12.40;99.90;;;;;;5032789;28;20034;-60
2022/04/08 05:11:02;;;;;;;18.13;4.85;;;12.40;99.90;;;;;;5035697;28;20056;-60
2022/04/08 05:13:28;;;;;;;20.00;4.80;;;12.40;99.90;;;;;;5036442;28;20036;-60
2022/04/08 05:15:53;;;;;;;18.45;4.90;;;12.40;99.90;;;;;;5036169;28;20116;-60
2022/04/08 05:18:19;;;;;;;17.25;4.80;;;12.40;99.90;;;;;;5035739;28;20124;-60
2022/04/08 05:20:45;;;;;;;17.50;4.50;;;12.40;99.90;;;;;;5033852;28;20028;-61
2022/04/08 05:23:10;;;;;;;17.10;4.75;;;12.40;99.90;;;;;;5033835;28;20057;-60
2022/04/08 05:25:36;;;;;;;19.30;4.70;;;12.40;99.90;;;;;;5033744;28;20041;-61
2022/04/08 05:28:02;;;;;;;19.13;5.28;;;12.30;99.90;;;;;;5034067;28;20076;-61
2022/04/08 05:30:28;;;;;;;17.50;4.82;;;12.40;99.90;;;;;;5035472;28;20036;-61
2022/04/08 05:32:55;;;;;;;15.68;4.63;;;12.40;99.90;;;;;;5035308;28;20053;-60
2022/04/08 05:35:21;;;;;;;12.40;4.43;;;12.40;99.90;;;;;;5031494;28;20045;-60
2022/04/08 05:37:48;;;;;;;19.05;4.60;;;12.40;99.90;;;;;;5037063;28;20117;-61
2022/04/08 05:40:16;;;;;;;20.13;4.85;;;12.40;99.90;;;;;;5035047;28;20514;-61
2022/04/08 05:42:49;;;;;;;16.65;4.65;;;12.40;99.90;;;;;;5035349;28;20565;-60
2022/04/08 05:45:21;;;;;;;17.35;4.63;;;12.40;99.90;;;;;;5035382;28;20474;-61
2022/04/08 05:47:47;;;;;;;17.05;4.60;;;12.40;99.90;;;;;;5033908;28;20506;-61
2022/04/08 05:50:14;;;;;;;16.80;4.78;;;12.50;99.90;;;;;;5032343;28;20037;-60
2022/04/08 05:52:40;;;;;;;16.52;4.38;;;12.40;99.90;;;;;;5037193;28;20076;-60
2022/04/08 05:55:07;;;;;;;21.50;4.57;;;12.40;99.90;;;;;;5034630;28;20029;-60
2022/04/08 05:57:34;;;;;;;15.20;4.22;;;12.40;99.90;;;;;;5035066;28;20041;-60
2022/04/08 06:00:01;;;;;;;14.10;4.03;;;12.40;99.90;;;;;;5035474;28;20028;-60
2022/04/08 06:02:26;;;;;;;15.20;3.95;;;12.50;99.90;;;;;;5029571;28;20029;-60
2022/04/08 06:04:52;;;;;;;17.42;4.55;;;12.50;99.90;;;;;;5037146;28;20041;-60
2022/04/08 06:07:18;;;;;;;18.95;4.90;;;12.50;99.90;;;;;;5033313;28;20029;-60
2022/04/08 06:09:43;;;;;;;19.17;4.60;;;12.40;99.90;;;;;;5034437;28;20033;-58
2022/04/08 06:12:09;;;;;;;13.95;4.20;;;12.50;99.90;;;;;;5035027;28;20029;-59
2022/04/08 06:14:35;;;;;;;17.40;4.18;;;12.50;99.90;;;;;;5031562;28;20105;-59
2022/04/08 06:17:00;;;;;;;16.75;4.45;;;12.50;99.90;;;;;;5035449;28;20036;-59
2022/04/08 06:19:26;;;;;;;20.55;4.88;;;12.60;99.90;;;;;;5035457;28;20033;-59
2022/04/08 06:21:54;;;;;;;18.52;4.30;;;12.60;99.90;;;;;;5034558;28;20099;-59
2022/04/08 06:24:19;;;;;;;19.85;4.50;;;12.50;99.90;;;;;;5034397;28;20049;-60
2022/04/08 06:26:45;;;;;;;16.38;4.50;;;12.60;99.90;;;;;;5030026;28;20061;-59
2022/04/08 06:29:11;;;;;;;15.68;4.32;;;12.70;99.90;;;;;;5032291;28;20068;-58
2022/04/08 06:31:36;;;;;;;16.15;4.30;;;12.70;99.90;;;;;;5033279;28;20422;-59
2022/04/08 06:34:02;;;;;;;14.15;3.88;;;12.70;99.90;;;;;;5031636;28;20033;-60
2022/04/08 06:36:29;;;;;;;15.88;4.25;;;12.80;99.90;;;;;;5030415;28;20045;-60
2022/04/08 06:38:55;;;;;;;12.70;3.55;;;12.80;99.90;;;;;;5028482;28;20042;-60
2022/04/08 06:41:21;;;;;;;14.50;3.85;;;12.90;99.90;;;;;;5029190;28;20502;-59
2022/04/08 06:43:47;;;;;;;17.10;3.95;;;13.00;99.90;;;;;;5034402;28;20033;-60
2022/04/08 06:46:13;;;;;;;16.80;4.00;;;13.00;99.90;;;;;;5032844;28;20116;-60
2022/04/08 06:48:39;;;;;;;13.68;3.83;;;13.10;99.90;;;;;;5034746;28;20498;-60
2022/04/08 06:51:05;;;;;;;15.07;4.03;;;13.20;99.90;;;;;;5034359;28;20025;-61
2022/04/08 06:53:32;;;;;;;13.00;3.58;;;13.40;99.90;;;;;;5029742;28;20037;-61
2022/04/08 06:56:01;;;;;;;14.05;3.47;;;13.50;99.90;;;;;;5034849;28;20052;-63
2022/04/08 06:58:27;;;;;;;13.93;4.47;;;13.60;99.90;;;;;;5029298;28;20049;-60
2022/04/08 07:00:54;;;;;;;17.00;4.13;;;13.70;99.90;;;;;;5034265;28;20057;-60
2022/04/08 07:03:20;;;;;;;17.98;3.72;;;13.80;99.90;;;;;;5033979;28;20044;-60
2022/04/08 07:05:47;;;;;;;17.25;4.05;;;14.10;99.90;;;;;;5032179;28;20049;-60
2022/04/08 07:08:12;;;;;;;14.48;3.80;;;14.50;99.90;;;;;;5031213;28;20103;-60
2022/04/08 07:10:38;;;;;;;15.07;3.80;;;15.20;99.90;;;;;;5035416;28;20068;-60
2022/04/08 07:13:08;;;;;;;15.80;3.85;;;16.00;99.90;;;;;;5033682;28;20036;-60
2022/04/08 07:15:34;;;;;;;17.23;3.88;;;15.90;99.90;;;;;;5034263;28;20036;-60
2022/04/08 07:18:03;;;;;;;13.70;3.45;;;15.50;99.90;;;;;;5033978;28;20405;-59
2022/04/08 07:20:28;;;;;;;14.50;4.00;;;15.50;99.90;;;;;;5013090;28;20021;-60
2022/04/08 07:22:54;;;;;;;13.90;3.60;;;15.40;99.90;;;;;;5035559;28;20466;-60
2022/04/08 07:25:20;;;;;;;14.52;3.60;;;15.50;99.90;;;;;;5032472;28;20029;-60
2022/04/08 07:27:52;;;;;;;14.52;3.67;;;15.70;99.90;;;;;;5033931;28;20044;-60
2022/04/08 07:30:20;;;;;;;17.65;4.22;;;16.10;99.90;;;;;;5034351;28;20470;-60
2022/04/08 07:32:48;;;;;;;11.05;3.55;;;15.90;99.90;;;;;;5031991;28;20029;-60
2022/04/08 07:35:14;;;;;;;10.90;3.65;;;16.90;99.90;;;;;;5030721;28;20567;-60
2022/04/08 07:37:40;;;;;;;15.70;4.28;;;17.40;99.90;;;;;;5035723;28;20037;-60
2022/04/08 07:40:08;;;;;;;13.68;3.80;;;18.10;99.90;;;;;;5033763;28;20035;-60
2022/04/08 07:42:33;;;;;;;13.10;4.05;;;17.90;99.90;;;;;;5033249;28;20022;-60
2022/04/08 07:44:59;;;;;;;16.08;4.50;;;17.60;99.90;;;;;;5033859;28;20028;-60
2022/04/08 07:47:29;;;;;;;14.45;4.65;;;17.70;99.90;;;;;;5015350;28;20033;-60
2022/04/08 07:49:58;;;;;;;13.68;4.05;;;17.30;99.90;;;;;;5047225;28;20071;-60
2022/04/08 07:52:25;;;;;;;12.45;3.70;;;16.70;99.90;;;;;;5037743;28;20026;-60
2022/04/08 07:54:51;;;;;;;17.00;4.28;;;16.20;99.90;;;;;;5037882;28;20032;-60
2022/04/08 07:57:18;;;;;;;11.43;3.67;;;15.90;99.90;;;;;;5037316;28;20029;-61
2022/04/08 07:59:44;;;;;;;12.65;3.72;;;15.70;99.90;;;;;;5033927;28;20030;-60
2022/04/08 08:02:10;;;;;;;14.20;4.22;;;15.60;99.90;;;;;;5035904;28;20048;-60
2022/04/08 08:04:39;;;;;;;12.00;3.60;;;15.50;99.90;;;;;;5036582;28;20033;-60
2022/04/08 08:07:05;;;;;;;11.50;3.60;;;15.40;99.90;;;;;;5035946;28;20037;-60
2022/04/08 08:09:30;;;;;;;12.63;3.40;;;15.20;99.90;;;;;;5037253;28;20033;-60
2022/04/08 08:11:56;;;;;;;11.65;3.65;;;15.10;99.90;;;;;;5037156;28;20053;-60
2022/04/08 08:14:22;;;;;;;10.82;3.10;;;15.10;99.90;;;;;;5033333;28;20100;-60
2022/04/08 08:16:47;;;;;;;9.25;3.28;;;14.90;99.90;;;;;;5037633;28;20028;-60
2022/04/08 08:19:14;;;;;;;11.85;3.33;;;15.00;99.90;;;;;;5036479;28;20072;-61
2022/04/08 08:21:40;;;;;;;14.93;4.10;;;15.00;99.90;;;;;;5037088;28;20048;-63
2022/04/08 08:24:06;;;;;;;11.70;3.85;;;15.10;99.90;;;;;;5036948;28;20485;-60
2022/04/08 08:26:31;;;;;;;10.15;3.25;;;15.30;99.90;;;;;;5033217;28;20025;-60
2022/04/08 08:28:58;;;;;;;13.65;3.53;;;15.40;99.90;;;;;;5038236;28;20022;-60
2022/04/08 08:31:24;;;;;;;10.18;3.60;;;15.60;99.90;;;;;;5036962;28;20037;-60
2022/04/08 08:33:50;;;;;;;8.85;3.70;;;15.60;99.90;;;;;;5036279;28;20075;-60
2022/04/08 08:36:16;;;;;;;10.93;3.55;;;15.50;99.90;;;;;;5036571;28;20045;-60
2022/04/08 08:38:42;;;;;;;12.93;3.30;;;15.60;99.90;;;;;;5032673;28;20045;-60
2022/04/08 08:41:09;;;;;;;9.48;3.13;;;15.50;99.90;;;;;;5035955;28;20096;-60
2022/04/08 08:43:36;;;;;;;12.45;3.25;;;15.40;99.90;;;;;;5035808;28;20021;-60
2022/04/08 08:46:07;;;;;;;12.52;3.30;;;15.30;99.90;;;;;;5036715;28;20099;-60
2022/04/08 08:48:37;;;;;;;10.82;3.13;;;15.20;99.90;;;;;;5036035;28;20525;-60
2022/04/08 08:51:05;;;;;;;9.32;3.10;;;15.10;99.90;;;;;;5036482;28;20025;-60
2022/04/08 08:53:33;;;;;;;9.27;3.53;;;15.20;99.90;;;;;;5032338;28;20487;-60
2022/04/08 08:56:00;;;;;;;10.85;2.92;;;15.10;99.90;;;;;;5037063;28;20096;-60
2022/04/08 08:58:28;;;;;;;10.52;3.17;;;15.10;99.90;;;;;;5034683;28;20484;-60
2022/04/08 09:00:53;;;;;;;11.75;3.28;;;15.00;99.90;;;;;;5036150;28;20393;-60
2022/04/08 09:03:19;;;;;;;10.20;3.80;;;14.90;99.90;;;;;;5035741;28;20033;-60
2022/04/08 09:05:52;;;;;;;8.98;3.28;;;14.90;99.90;;;;;;5034046;28;20096;-60
2022/04/08 09:08:18;;;;;;;11.55;3.38;;;14.90;99.90;;;;;;5032679;28;20038;-60
2022/04/08 09:10:48;;;;;;;9.18;3.60;;;15.00;99.90;;;;;;5038234;28;20026;-60
2022/04/08 09:13:19;;;;;;;7.00;3.10;;;15.00;99.90;;;;;;5035750;28;20037;-60
2022/04/08 09:15:58;;;;;;;10.05;3.65;;;15.10;99.90;;;;;;5035782;28;20036;-60
2022/04/08 09:18:31;;;;;;;14.07;4.03;;;15.10;99.90;;;;;;5033953;28;20057;-60
2022/04/08 09:20:58;;;;;;;10.23;3.45;;;15.10;99.90;;;;;;5033983;28;20060;-60
2022/04/08 09:23:24;;;;;;;7.63;3.50;;;15.00;99.90;;;;;;5031923;28;20033;-60
2022/04/08 09:26:02;;;;;;;8.82;3.60;;;15.00;99.90;;;;;;5036506;28;20064;-60
2022/04/08 09:28:40;;;;;;;8.10;3.55;;;15.10;99.90;;;;;;5034943;28;20064;-59
2022/04/08 09:31:14;;;;;;;8.52;3.28;;;15.30;99.90;;;;;;5035456;28;20100;-60
2022/04/08 09:33:48;;;;;;;10.48;3.60;;;15.40;99.90;;;;;;5035641;28;20076;-60
2022/04/08 09:36:13;;;;;;;7.47;3.10;;;15.40;99.90;;;;;;5035176;28;20132;-60
2022/04/08 09:38:49;;;;;;;12.25;3.55;;;15.50;99.90;;;;;;5032625;28;20129;-60
2022/04/08 09:41:15;;;;;;;7.82;3.00;;;15.50;99.90;;;;;;5031226;28;20060;-60
2022/04/08 09:43:41;;;;;;;10.05;3.17;;;15.70;99.90;;;;;;5037623;28;20398;-60
2022/04/08 09:46:16;;;;;;;7.95;2.70;;;15.80;99.90;;;;;;5034966;28;20022;-60
2022/04/08 09:48:42;;;;;;;9.77;2.95;;;15.80;99.90;;;;;;5035179;28;20459;-60
2022/04/08 09:51:12;;;;;;;10.15;3.20;;;15.90;99.90;;;;;;5035516;28;20025;-60
2022/04/08 09:53:40;;;;;;;10.70;3.17;;;16.20;99.90;;;;;;5032479;28;20033;-60
2022/04/08 09:56:12;;;;;;;6.80;2.55;;;16.40;99.90;;;;;;5034479;28;20020;-60
2022/04/08 09:58:40;;;;;;;8.48;3.60;;;16.30;99.90;;;;;;5034886;28;20052;-60
2022/04/08 10:01:07;;;;;;;9.38;3.03;;;16.40;99.90;;;;;;5033387;28;20391;-60
2022/04/08 10:03:34;;;;;;;7.00;2.92;;;16.20;99.90;;;;;;5035152;28;20030;-60
2022/04/08 10:06:00;;;;;;;6.93;2.95;;;16.30;99.90;;;;;;5034949;28;20024;-60
2022/04/08 10:08:27;;;;;;;6.68;2.67;;;16.50;99.90;;;;;;5015406;28;20037;-60
2022/04/08 10:11:25;;;;;;;5.97;2.58;;;16.70;99.90;;;;;;5036981;28;20112;-60
2022/04/08 10:14:15;;;;;;;10.52;2.72;;;16.80;99.90;;;;;;5045615;28;20041;-60
2022/04/08 10:16:41;;;;;;;5.65;2.42;;;16.90;99.90;;;;;;5034766;28;20033;-59
2022/04/08 10:19:07;;;;;;;7.03;2.53;;;17.10;99.90;;;;;;5034980;28;20041;-60
2022/04/08 10:21:40;;;;;;;6.28;2.60;;;17.00;99.90;;;;;;5034870;28;20116;-60
2022/04/08 10:24:10;;;;;;;11.63;2.92;;;16.80;99.90;;;;;;5034943;28;20060;-62
2022/04/08 10:26:54;;;;;;;5.60;2.25;;;17.10;99.90;;;;;;5031407;28;20525;-60
2022/04/08 10:29:20;;;;;;;5.32;2.28;;;17.60;99.90;;;;;;5030372;28;20068;-60
2022/04/08 10:32:05;;;;;;;7.32;2.63;;;17.30;99.90;;;;;;5036288;28;20018;-60
2022/04/08 10:34:32;;;;;;;5.97;2.58;;;17.30;99.90;;;;;;5035462;28;20128;-60
2022/04/08 10:37:12;;;;;;;6.32;2.80;;;17.60;99.90;;;;;;5032991;28;20054;-60
2022/04/08 10:39:38;;;;;;;6.32;2.35;;;18.10;99.90;;;;;;5033600;28;20521;-60
2022/04/08 10:42:08;;;;;;;7.10;2.50;;;18.60;99.90;;;;;;5034247;28;20045;-60
2022/04/08 10:44:39;;;;;;;4.28;1.65;;;18.10;99.90;;;;;;5030555;28;20425;-60
2022/04/08 10:47:16;;;;;;;4.75;2.00;;;17.80;99.90;;;;;;5034572;28;20105;-60
2022/04/08 10:50:07;;;;;;;6.60;2.10;;;18.00;99.90;;;;;;5035198;28;20032;-60
2022/04/08 10:52:40;;;;;;;7.07;2.17;;;17.90;99.90;;;;;;5032213;28;20060;-60
2022/04/08 10:55:12;;;;;;;4.13;1.92;;;17.90;99.90;;;;;;5034527;28;20112;-60
2022/04/08 10:57:45;;;;;;;5.70;1.77;;;17.80;99.90;;;;;;5034203;28;20099;-60
2022/04/08 11:00:12;;;;;;;4.38;2.10;;;17.50;99.90;;;;;;5033931;28;20128;-62
2022/04/08 11:02:40;;;;;;;6.50;2.25;;;17.50;99.90;;;;;;5031611;28;20036;-60
2022/04/08 11:05:08;;;;;;;4.53;2.08;;;17.70;99.90;;;;;;5033873;28;20026;-60
2022/04/08 11:07:34;;;;;;;6.85;2.30;;;17.80;99.90;;;;;;5034148;28;20075;-60
2022/04/08 11:10:02;;;;;;;5.75;2.10;;;17.70;99.90;;;;;;5034142;28;20398;-60
2022/04/08 11:12:30;;;;;;;4.80;1.75;;;17.70;99.90;;;;;;5033920;28;20105;-60
2022/04/08 11:14:58;;;;;;;4.93;1.83;;;17.80;99.90;;;;;;5032323;28;20064;-60
2022/04/08 11:17:33;;;;;;;4.82;1.80;;;17.70;99.90;;;;;;5029313;28;20029;-60
2022/04/08 11:19:59;;;;;;;5.45;1.92;;;17.60;99.90;;;;;;5043884;28;20432;-60
2022/04/08 11:22:25;;;;;;;5.57;2.10;;;17.40;99.90;;;;;;5036376;28;20029;-60
2022/04/08 11:24:56;;;;;;;7.47;2.17;;;17.30;99.90;;;;;;5037964;28;20041;-60
2022/04/08 11:27:22;;;;;;;4.80;1.85;;;17.10;99.90;;;;;;5038455;28;20030;-60
2022/04/08 11:29:47;;;;;;;4.97;1.92;;;17.10;99.90;;;;;;5035563;28;20563;-60
2022/04/08 11:32:13;;;;;;;5.43;2.50;;;17.10;99.90;;;;;;5035199;28;20026;-60
2022/04/08 11:34:39;;;;;;;8.73;2.08;;;17.10;99.90;;;;;;5040137;28;20372;-60
2022/04/08 11:37:05;;;;;;;8.07;1.90;;;17.30;99.90;;;;;;5037699;28;20415;-60
2022/04/08 11:39:31;;;;;;;10.57;2.22;;;17.40;99.90;;;;;;5037982;28;20114;-60
2022/04/08 11:41:59;;;;;;;4.22;1.90;;;17.50;99.90;;;;;;5037501;28;20502;-60
2022/04/08 11:44:28;;;;;;;8.85;1.83;;;17.40;99.90;;;;;;5033168;28;20492;-60
2022/04/08 11:47:07;;;;;;;5.68;1.77;;;17.30;99.90;;;;;;5039572;28;20024;-60
2022/04/08 11:49:33;;;;;;;5.32;1.98;;;17.30;99.90;;;;;;5039058;28;20029;-60
2022/04/08 11:52:03;;;;;;;5.03;1.80;;;17.30;99.90;;;;;;5037569;28;20105;-60
2022/04/08 11:54:38;;;;;;;6.38;2.33;;;17.30;99.90;;;;;;5035962;28;20064;-60
2022/04/08 11:57:05;;;;;;;5.97;1.77;;;17.40;99.90;;;;;;5035715;28;20032;-60
2022/04/08 11:59:32;;;;;;;5.78;1.80;;;17.40;99.90;;;;;;5033212;28;20046;-60
2022/04/08 12:01:59;;;;;;;6.28;2.08;;;17.50;99.90;;;;;;5039302;28;20478;-60
2022/04/08 12:04:26;;;;;;;6.78;2.03;;;17.60;99.90;;;;;;5037668;28;20071;-60
2022/04/08 12:06:51;;;;;;;6.03;1.90;;;17.50;99.90;;;;;;5037223;28;20500;-60
2022/04/08 12:09:20;;;;;;;6.43;1.83;;;17.60;99.90;;;;;;5037062;28;20108;-60
2022/04/08 12:11:47;;;;;;;7.60;1.92;;;17.50;99.90;;;;;;5034837;28;20033;-60
2022/04/08 12:14:14;;;;;;;7.97;2.50;;;17.50;99.90;;;;;;5034764;28;20029;-60
2022/04/08 12:16:41;;;;;;;3.83;1.90;;;17.50;99.90;;;;;;5037448;28;20117;-60
2022/04/08 12:19:09;;;;;;;4.32;1.85;;;17.50;99.90;;;;;;5036859;28;20041;-60
2022/04/08 12:21:35;;;;;;;5.97;2.03;;;17.70;99.90;;;;;;5036756;28;20030;-60
2022/04/08 12:24:03;;;;;;;6.40;1.80;;;17.70;99.90;;;;;;5037322;28;20017;-60
2022/04/08 12:26:34;;;;;;;4.32;1.90;;;17.90;99.90;;;;;;5032393;28;20109;-60
2022/04/08 12:29:13;;;;;;;6.50;2.08;;;17.90;99.90;;;;;;5046670;28;20119;-61
2022/04/08 12:31:58;;;;;;;8.18;2.13;;;17.60;99.90;;;;;;5036785;28;20554;-60
2022/04/08 12:34:24;;;;;;;6.32;2.35;;;17.60;99.90;;;;;;5034257;28;20390;-60
2022/04/08 12:36:49;;;;;;;5.28;1.70;;;17.60;99.90;;;;;;5035397;28;20046;-59
2022/04/08 12:39:16;;;;;;;5.82;1.80;;;17.70;99.90;;;;;;5036437;28;20029;-60
2022/04/08 12:41:45;;;;;;;9.13;2.28;;;17.80;99.90;;;;;;5033840;28;20045;-60